Time;durP1;ratioP1;P1;durP2;ratioP2;P2;SDS_P1;SDS_P2;PMS_P1;PMS_P2;Temp;Humidity;BMP_temperature;BMP_pressure;BME280_temperature;BME280_humidity;BME280_pressure;Samples;Min_cycle;Max_cycle;Signal;HPM_P1;HPM_P2
2022/03/10 00:01:57;;;;;;;17.15;11.23;;;1.20;99.90;;;;;;5019256;28;20063;-81
2022/03/10 00:04:24;;;;;;;16.42;11.07;;;1.40;99.90;;;;;;5018440;28;20045;-79
2022/03/10 00:06:49;;;;;;;18.67;10.88;;;2.10;99.90;;;;;;5018212;28;20052;-78
2022/03/10 00:09:16;;;;;;;18.35;11.25;;;1.90;99.90;;;;;;5003529;28;20049;-78
2022/03/10 00:11:41;;;;;;;19.48;11.32;;;0.90;99.90;;;;;;5001259;28;20050;-80
2022/03/10 00:14:07;;;;;;;17.20;10.65;;;2.50;99.90;;;;;;5006286;28;20050;-78
2022/03/10 00:16:33;;;;;;;18.33;11.68;;;0.80;99.90;;;;;;5000970;28;20073;-78
2022/03/10 00:18:59;;;;;;;16.00;11.23;;;0.80;99.90;;;;;;5000863;28;20099;-78
2022/03/10 00:21:25;;;;;;;16.35;10.75;;;0.80;99.90;;;;;;5001489;28;20053;-78
2022/03/10 00:23:51;;;;;;;15.35;10.70;;;2.20;99.90;;;;;;5015150;28;20052;-77
2022/03/10 00:26:16;;;;;;;17.02;11.00;;;2.20;99.90;;;;;;5000991;28;20089;-78
2022/03/10 00:28:42;;;;;;;18.77;11.35;;;0.70;99.90;;;;;;5006345;28;20125;-80
2022/03/10 00:31:08;;;;;;;17.77;11.90;;;0.70;99.90;;;;;;5016807;28;20041;-78
2022/03/10 00:33:33;;;;;;;18.63;11.60;;;0.70;99.90;;;;;;4985320;28;20041;-77
2022/03/10 00:35:59;;;;;;;16.05;10.27;;;1.80;99.90;;;;;;5001466;28;20911;-77
2022/03/10 00:38:25;;;;;;;17.08;10.82;;;1.10;99.90;;;;;;5007591;28;20049;-79
2022/03/10 00:40:50;;;;;;;20.65;11.23;;;1.40;99.90;;;;;;5016202;28;20076;-78
2022/03/10 00:43:16;;;;;;;16.45;11.10;;;0.60;99.90;;;;;;5000138;28;20676;-78
2022/03/10 00:45:42;;;;;;;18.60;11.20;;;0.60;99.90;;;;;;4983439;28;20054;-78
2022/03/10 00:48:09;;;;;;;18.92;11.38;;;2.00;99.90;;;;;;5032140;28;20049;-78
2022/03/10 00:50:35;;;;;;;17.48;11.55;;;2.20;99.90;;;;;;4982731;28;20049;-78
2022/03/10 00:53:00;;;;;;;17.20;11.50;;;0.70;99.90;;;;;;5015912;28;20072;-78
2022/03/10 00:55:26;;;;;;;16.10;10.60;;;0.60;99.90;;;;;;5000876;28;20042;-77
2022/03/10 00:57:52;;;;;;;23.67;11.25;;;1.50;99.90;;;;;;5000877;28;20049;-77
2022/03/10 01:00:19;;;;;;;17.60;11.88;;;1.00;99.90;;;;;;5006164;28;20056;-78
2022/03/10 01:02:45;;;;;;;15.93;11.45;;;2.30;99.90;;;;;;5016524;28;20081;-79
2022/03/10 01:05:11;;;;;;;17.90;11.05;;;0.80;99.90;;;;;;5016240;28;20046;-77
2022/03/10 01:07:37;;;;;;;15.45;11.05;;;0.60;99.90;;;;;;5000276;28;20057;-78
2022/03/10 01:10:05;;;;;;;18.02;11.05;;;0.40;99.90;;;;;;4997865;28;20511;-78
2022/03/10 01:12:32;;;;;;;18.02;11.60;;;0.40;99.90;;;;;;5007455;28;20050;-77
2022/03/10 01:14:58;;;;;;;19.17;11.65;;;0.40;99.90;;;;;;5007658;28;20049;-77
2022/03/10 01:17:23;;;;;;;18.17;11.07;;;1.40;99.90;;;;;;5007016;28;20053;-78
2022/03/10 01:19:50;;;;;;;15.60;10.65;;;0.30;99.90;;;;;;5006053;28;20129;-77
2022/03/10 01:22:16;;;;;;;18.10;12.02;;;1.00;99.90;;;;;;5008311;28;20517;-78
2022/03/10 01:24:42;;;;;;;15.05;11.07;;;1.50;99.90;;;;;;4984267;28;20092;-77
2022/03/10 01:27:09;;;;;;;16.63;11.00;;;0.30;99.90;;;;;;5017909;28;20053;-78
2022/03/10 01:29:34;;;;;;;16.73;11.15;;;1.00;99.90;;;;;;5027925;28;20172;-80
2022/03/10 01:32:00;;;;;;;18.65;11.85;;;0.80;99.90;;;;;;5017903;28;20111;-79
2022/03/10 01:34:26;;;;;;;17.08;10.90;;;0.10;99.90;;;;;;4987533;28;20187;-79
2022/03/10 01:36:52;;;;;;;16.17;10.20;;;0.20;99.90;;;;;;5019334;28;20578;-79
2022/03/10 01:39:17;;;;;;;15.90;10.18;;;1.20;99.90;;;;;;4988005;28;20053;-79
2022/03/10 01:41:44;;;;;;;16.77;11.05;;;0.20;99.90;;;;;;5019478;28;20072;-78
2022/03/10 01:44:10;;;;;;;17.55;11.18;;;0.20;99.90;;;;;;5010844;28;20052;-79
2022/03/10 01:46:37;;;;;;;18.38;11.73;;;1.10;99.90;;;;;;5035233;28;20265;-79
2022/03/10 01:49:05;;;;;;;14.85;10.23;;;0.10;99.90;;;;;;4987704;28;20041;-78
2022/03/10 01:51:32;;;;;;;21.80;11.85;;;0.10;99.90;;;;;;5003272;28;20053;-78
2022/03/10 01:53:58;;;;;;;16.20;10.65;;;1.40;99.90;;;;;;5003295;28;20076;-79
2022/03/10 01:56:24;;;;;;;16.70;10.52;;;0.70;99.90;;;;;;5019913;28;20037;-79
2022/03/10 01:58:53;;;;;;;15.10;10.45;;;1.20;99.90;;;;;;5019244;28;20052;-78
2022/03/10 02:01:19;;;;;;;16.77;10.77;;;0.90;99.90;;;;;;5018251;28;20136;-78
2022/03/10 02:03:45;;;;;;;20.58;10.48;;;1.30;99.90;;;;;;5002430;28;20050;-78
2022/03/10 02:06:11;;;;;;;17.92;10.73;;;0.90;99.90;;;;;;5018851;28;20404;-78
2022/03/10 02:11:21;;;;;;;15.48;10.20;;;1.50;99.90;;;;;;5019622;28;20732;-78
2022/03/10 02:13:48;;;;;;;15.82;11.45;;;1.00;99.90;;;;;;5004479;28;20986;-80
2022/03/10 02:19:00;;;;;;;14.68;10.15;;;1.10;99.90;;;;;;5019089;28;20085;-78
2022/03/10 02:21:26;;;;;;;15.98;10.55;;;1.50;99.90;;;;;;5019576;28;20053;-78
2022/03/10 02:23:52;;;;;;;13.82;9.18;;;0.80;99.90;;;;;;5010219;28;20049;-79
2022/03/10 02:26:18;;;;;;;16.10;10.95;;;-0.20;99.90;;;;;;5009098;28;20057;-78
2022/03/10 02:28:44;;;;;;;14.43;10.38;;;0.10;99.90;;;;;;5003337;28;20056;-79
2022/03/10 02:31:11;;;;;;;17.70;10.25;;;1.40;99.90;;;;;;5016855;28;20156;-78
2022/03/10 02:33:37;;;;;;;17.58;10.15;;;0.40;99.90;;;;;;5004378;28;20064;-79
2022/03/10 02:36:04;;;;;;;16.35;10.70;;;-0.30;99.90;;;;;;5008153;28;20153;-78
2022/03/10 02:38:31;;;;;;;14.75;10.00;;;-0.30;99.90;;;;;;5018887;28;20046;-78
2022/03/10 02:40:57;;;;;;;17.90;10.77;;;1.40;99.90;;;;;;5001298;28;20045;-78
2022/03/10 02:43:22;;;;;;;16.27;10.52;;;-0.30;99.90;;;;;;5019466;28;20395;-78
2022/03/10 02:45:48;;;;;;;18.70;10.20;;;-0.30;99.90;;;;;;5001859;28;20046;-78
2022/03/10 02:48:15;;;;;;;14.30;10.20;;;-0.30;99.90;;;;;;4986753;28;20112;-78
2022/03/10 02:50:42;;;;;;;17.42;11.30;;;-0.30;99.90;;;;;;5018693;28;20060;-79
2022/03/10 02:53:08;;;;;;;17.48;10.88;;;-0.30;99.90;;;;;;5003388;28;20161;-79
2022/03/10 02:55:34;;;;;;;17.95;10.40;;;-0.40;99.90;;;;;;5002409;28;20518;-79
2022/03/10 02:58:00;;;;;;;16.45;9.93;;;-0.40;99.90;;;;;;4992862;28;20495;-78
2022/03/10 03:00:26;;;;;;;17.08;10.25;;;1.20;99.90;;;;;;5002265;28;20367;-77
2022/03/10 03:02:52;;;;;;;15.02;9.77;;;-0.40;99.90;;;;;;5016935;28;20057;-79
2022/03/10 03:05:18;;;;;;;14.95;9.82;;;-0.40;99.90;;;;;;5003930;28;20518;-78
2022/03/10 03:07:44;;;;;;;16.35;11.15;;;-0.20;99.90;;;;;;4993883;28;20065;-78
2022/03/10 03:10:10;;;;;;;15.57;9.90;;;-0.40;99.90;;;;;;5002973;28;20045;-78
2022/03/10 03:12:50;;;;;;;19.40;11.10;;;-0.30;99.90;;;;;;5010949;28;20105;-79
2022/03/10 03:15:17;;;;;;;14.05;10.27;;;0.10;99.90;;;;;;5010023;28;20060;-78
2022/03/10 03:17:43;;;;;;;16.52;10.50;;;1.10;99.90;;;;;;4999301;28;20052;-78
2022/03/10 03:20:14;;;;;;;18.50;10.27;;;-0.50;99.90;;;;;;5001003;28;20042;-78
2022/03/10 03:22:43;;;;;;;17.98;9.80;;;-0.50;99.90;;;;;;5007003;28;20171;-79
2022/03/10 03:25:11;;;;;;;14.93;10.00;;;0.70;99.90;;;;;;5001292;28;20065;-78
2022/03/10 03:27:36;;;;;;;17.17;10.82;;;-0.50;99.90;;;;;;5002040;28;20053;-78
2022/03/10 03:30:04;;;;;;;16.85;10.60;;;0.50;99.90;;;;;;4986148;28;20046;-78
2022/03/10 03:32:30;;;;;;;15.00;10.73;;;-0.50;99.90;;;;;;5018193;28;20081;-78
2022/03/10 03:34:56;;;;;;;15.63;10.13;;;0.00;99.90;;;;;;5007841;28;20775;-78
2022/03/10 03:37:21;;;;;;;17.90;10.07;;;-0.10;99.90;;;;;;4999854;28;20054;-78
2022/03/10 03:39:47;;;;;;;21.35;11.32;;;0.90;99.90;;;;;;5017017;28;20140;-78
2022/03/10 03:42:13;;;;;;;14.45;9.73;;;0.10;99.90;;;;;;5000053;28;20074;-79
2022/03/10 03:44:38;;;;;;;14.45;10.02;;;1.20;99.90;;;;;;4986486;28;20462;-78
2022/03/10 03:47:04;;;;;;;15.18;10.20;;;0.90;99.90;;;;;;5001495;28;20077;-78
2022/03/10 03:49:30;;;;;;;17.63;10.18;;;-0.70;99.90;;;;;;5001976;28;20041;-78
2022/03/10 03:51:56;;;;;;;17.23;11.27;;;-0.10;99.90;;;;;;5015268;28;20157;-79
2022/03/10 03:54:22;;;;;;;17.52;10.38;;;-0.70;99.90;;;;;;5002168;28;20050;-78
2022/03/10 03:56:47;;;;;;;15.68;10.30;;;0.10;99.90;;;;;;5016171;28;20052;-78
2022/03/10 03:59:13;;;;;;;16.80;10.25;;;-0.80;99.90;;;;;;4985087;28;20554;-78
2022/03/10 04:01:39;;;;;;;15.32;10.15;;;0.60;99.90;;;;;;5000999;28;20065;-77
2022/03/10 04:04:04;;;;;;;15.88;10.02;;;-0.80;99.90;;;;;;5002177;28;20513;-77
2022/03/10 04:06:30;;;;;;;18.35;10.80;;;0.70;99.90;;;;;;5002453;28;20037;-78
2022/03/10 04:08:56;;;;;;;16.63;10.27;;;-0.90;99.90;;;;;;5001840;28;20053;-80
2022/03/10 04:11:21;;;;;;;16.38;10.77;;;-0.90;99.90;;;;;;5000409;28;20149;-77
2022/03/10 04:13:47;;;;;;;16.45;11.18;;;0.00;99.90;;;;;;5017371;28;20069;-77
2022/03/10 04:16:13;;;;;;;14.07;10.20;;;-0.90;99.90;;;;;;5015225;28;20046;-78
2022/03/10 04:18:39;;;;;;;16.08;10.45;;;0.50;99.90;;;;;;5001253;28;20092;-77
2022/03/10 04:21:05;;;;;;;17.52;11.32;;;-0.80;99.90;;;;;;4998893;28;20056;-77
2022/03/10 04:23:31;;;;;;;16.90;10.15;;;-0.10;99.90;;;;;;4984199;28;20041;-78
2022/03/10 04:25:57;;;;;;;17.25;10.32;;;-1.00;99.90;;;;;;4982354;28;20065;-79
2022/03/10 04:28:23;;;;;;;15.57;10.52;;;-0.30;99.90;;;;;;5000635;28;20064;-80
2022/03/10 04:30:49;;;;;;;15.52;10.30;;;0.30;99.90;;;;;;4984990;28;20054;-80
2022/03/10 04:33:15;;;;;;;17.55;9.98;;;-1.10;99.90;;;;;;5005390;28;20049;-80
2022/03/10 04:35:41;;;;;;;18.30;10.75;;;0.60;99.90;;;;;;5002406;28;20054;-80
2022/03/10 04:38:07;;;;;;;18.10;10.93;;;-1.10;99.90;;;;;;4999135;28;20450;-80
2022/03/10 04:40:33;;;;;;;15.43;10.50;;;-1.10;99.90;;;;;;5034140;28;20492;-78
2022/03/10 04:42:59;;;;;;;17.42;10.32;;;-1.20;99.90;;;;;;4998445;28;20404;-79
2022/03/10 04:45:25;;;;;;;16.85;10.60;;;-1.20;99.90;;;;;;5018230;28;20053;-77
2022/03/10 04:47:51;;;;;;;15.20;9.75;;;-1.20;99.90;;;;;;5000209;28;20107;-77
2022/03/10 04:50:18;;;;;;;15.18;10.55;;;-1.20;99.90;;;;;;5007189;28;20496;-77
2022/03/10 04:52:44;;;;;;;15.75;10.10;;;0.50;99.90;;;;;;4983648;28;20100;-78
2022/03/10 04:55:11;;;;;;;16.45;10.52;;;0.10;99.90;;;;;;5015810;28;20049;-77
2022/03/10 04:57:38;;;;;;;16.73;11.02;;;-0.30;99.90;;;;;;5015916;28;20061;-77
2022/03/10 05:00:10;;;;;;;15.57;9.88;;;0.30;99.90;;;;;;5031571;28;20046;-77
2022/03/10 05:02:40;;;;;;;17.13;10.40;;;-1.30;99.90;;;;;;5012353;28;20053;-79
2022/03/10 05:05:07;;;;;;;17.60;10.68;;;-1.30;99.90;;;;;;5012699;28;20133;-78
2022/03/10 05:07:33;;;;;;;16.38;10.35;;;;;;;;;;5038139;28;20124;-79
2022/03/10 05:09:59;;;;;;;16.42;10.82;;;-1.30;99.90;;;;;;5022089;28;20064;-80
2022/03/10 05:12:25;;;;;;;16.77;10.63;;;-0.10;99.90;;;;;;5004717;28;20053;-78
2022/03/10 05:14:51;;;;;;;20.38;11.43;;;-1.30;99.90;;;;;;5012540;28;20148;-79
2022/03/10 05:17:17;;;;;;;20.00;10.50;;;0.30;99.90;;;;;;5011851;28;20200;-78
2022/03/10 05:19:43;;;;;;;16.27;10.77;;;0.40;99.90;;;;;;5003463;28;20157;-78
2022/03/10 05:22:08;;;;;;;16.67;10.27;;;-0.40;99.90;;;;;;4988146;28;20050;-78
2022/03/10 05:24:34;;;;;;;18.38;10.75;;;0.00;99.90;;;;;;5012315;28;20050;-77
2022/03/10 05:27:01;;;;;;;17.77;11.27;;;0.70;99.90;;;;;;5003587;28;20053;-79
2022/03/10 05:29:26;;;;;;;16.88;11.27;;;0.20;99.90;;;;;;5036731;28;20053;-77
2022/03/10 05:31:52;;;;;;;17.02;10.48;;;-1.20;99.90;;;;;;5003601;28;20115;-79
2022/03/10 05:34:19;;;;;;;16.75;10.52;;;-1.30;99.90;;;;;;5019891;28;20054;-79
2022/03/10 05:36:44;;;;;;;17.27;11.43;;;0.60;99.90;;;;;;5003936;28;20052;-79
2022/03/10 05:39:10;;;;;;;14.68;10.13;;;-0.60;99.90;;;;;;5011097;28;20112;-78
2022/03/10 05:41:36;;;;;;;17.83;11.35;;;0.50;99.90;;;;;;5020677;28;20064;-80
2022/03/10 05:44:02;;;;;;;15.68;9.65;;;-0.20;99.90;;;;;;5018196;28;20053;-80
2022/03/10 05:46:28;;;;;;;16.30;10.90;;;-1.30;99.90;;;;;;5011711;28;20057;-78
2022/03/10 05:48:54;;;;;;;17.70;11.15;;;-1.30;99.90;;;;;;4987307;28;20135;-78
2022/03/10 05:51:20;;;;;;;19.60;11.25;;;-0.20;99.90;;;;;;5020450;28;20033;-79
2022/03/10 05:53:48;;;;;;;17.50;11.02;;;-1.30;99.90;;;;;;5004373;28;20048;-78
2022/03/10 05:56:14;;;;;;;14.75;10.00;;;-1.30;99.90;;;;;;5019581;28;20057;-79
2022/03/10 05:58:40;;;;;;;16.95;10.77;;;0.40;99.90;;;;;;5004667;28;20053;-79
2022/03/10 06:01:06;;;;;;;17.60;10.90;;;-1.30;99.90;;;;;;5003727;28;20049;-79
2022/03/10 06:03:32;;;;;;;20.63;11.48;;;0.00;99.90;;;;;;5017924;28;20041;-80
2022/03/10 06:05:58;;;;;;;18.70;11.43;;;-0.30;99.90;;;;;;5004306;28;20148;-78
2022/03/10 06:08:25;;;;;;;22.10;11.55;;;-0.30;99.90;;;;;;4984336;28;20181;-79
2022/03/10 06:10:50;;;;;;;18.88;11.30;;;0.20;99.90;;;;;;4992554;28;20091;-80
2022/03/10 06:13:16;;;;;;;20.23;10.95;;;-1.30;99.90;;;;;;4986513;28;20077;-80
2022/03/10 06:15:42;;;;;;;17.00;10.75;;;-0.80;99.90;;;;;;4994729;28;20183;-80
2022/03/10 06:18:08;;;;;;;19.92;12.27;;;-0.20;99.90;;;;;;4988257;28;20108;-81
2022/03/10 06:20:34;;;;;;;18.88;11.70;;;-0.90;99.90;;;;;;5004191;28;20837;-80
2022/03/10 06:23:00;;;;;;;17.45;11.15;;;-1.20;99.90;;;;;;5021115;28;20129;-80
2022/03/10 06:25:26;;;;;;;17.77;11.48;;;-1.20;99.90;;;;;;5004376;28;20418;-80
2022/03/10 06:27:52;;;;;;;18.60;11.05;;;0.30;99.90;;;;;;5002911;28;20053;-79
2022/03/10 06:30:18;;;;;;;16.90;10.82;;;-1.10;99.90;;;;;;5001112;28;20052;-80
2022/03/10 06:32:44;;;;;;;20.83;11.57;;;-1.10;99.90;;;;;;5010440;28;20050;-78
2022/03/10 06:35:10;;;;;;;16.83;10.77;;;-1.10;99.90;;;;;;5018730;28;20048;-78
2022/03/10 06:37:36;;;;;;;17.73;11.02;;;0.50;99.90;;;;;;5007965;28;20057;-80
2022/03/10 06:40:02;;;;;;;16.67;11.32;;;0.30;99.90;;;;;;4986900;28;20042;-79
2022/03/10 06:42:30;;;;;;;19.20;11.80;;;-1.00;99.90;;;;;;5016422;28;20053;-79
2022/03/10 06:44:56;;;;;;;17.70;12.05;;;-1.00;99.90;;;;;;5020097;28;20049;-77
2022/03/10 06:47:22;;;;;;;18.92;11.57;;;0.60;99.90;;;;;;5008697;28;20083;-77
2022/03/10 06:49:47;;;;;;;19.23;11.95;;;-1.00;99.90;;;;;;5001582;28;20522;-77
2022/03/10 06:52:13;;;;;;;18.95;11.30;;;-0.90;99.90;;;;;;5016573;28;20033;-77
2022/03/10 06:54:40;;;;;;;20.48;11.52;;;-0.90;99.90;;;;;;5018501;28;20052;-77
2022/03/10 06:57:06;;;;;;;19.10;11.15;;;-0.90;99.90;;;;;;5017536;28;20491;-79
2022/03/10 06:59:32;;;;;;;18.05;12.32;;;-0.80;99.90;;;;;;5002182;28;20038;-77
2022/03/10 07:01:58;;;;;;;18.25;11.75;;;-0.80;99.90;;;;;;5002446;28;20045;-77
2022/03/10 07:04:24;;;;;;;19.63;11.65;;;0.10;99.90;;;;;;5015180;28;20073;-77
2022/03/10 07:06:49;;;;;;;20.63;12.20;;;-0.30;99.90;;;;;;4980265;28;20061;-77
2022/03/10 07:09:15;;;;;;;18.52;12.02;;;-0.20;99.90;;;;;;5013036;28;20188;-76
2022/03/10 07:11:41;;;;;;;20.40;11.82;;;-0.10;99.90;;;;;;5002614;28;20484;-77
2022/03/10 07:14:07;;;;;;;21.73;11.95;;;0.90;99.90;;;;;;4997743;28;20095;-80
2022/03/10 07:16:33;;;;;;;19.85;12.40;;;-0.40;99.90;;;;;;4997904;28;20038;-78
2022/03/10 07:18:58;;;;;;;20.42;11.85;;;0.10;99.90;;;;;;4984582;28;20510;-79
2022/03/10 07:21:24;;;;;;;18.42;11.48;;;-1.60;99.90;;;;;;4985074;28;20080;-80
2022/03/10 07:23:50;;;;;;;20.70;12.80;;;1.90;99.90;;;;;;5002458;28;20487;-81
2022/03/10 07:26:17;;;;;;;21.85;12.75;;;0.00;99.90;;;;;;5016032;28;20045;-80
2022/03/10 07:28:43;;;;;;;21.25;13.05;;;;;;;;;;5010172;28;20172;-81
2022/03/10 07:31:09;;;;;;;19.65;12.00;;;0.20;99.90;;;;;;5015120;28;20077;-85
2022/03/10 07:33:35;;;;;;;18.52;11.95;;;0.30;99.90;;;;;;5004003;28;20053;-81
2022/03/10 07:36:02;;;;;;;20.88;12.70;;;1.70;99.90;;;;;;5001150;28;20174;-80
2022/03/10 07:38:28;;;;;;;16.63;11.90;;;0.50;99.90;;;;;;5009612;28;20832;-79
2022/03/10 07:40:56;;;;;;;21.77;12.15;;;2.60;99.90;;;;;;5001713;28;20434;-80
2022/03/10 07:43:22;;;;;;;19.90;12.73;;;1.90;99.90;;;;;;5016767;28;20049;-80
2022/03/10 07:45:50;;;;;;;18.75;11.77;;;2.00;99.90;;;;;;5002492;28;20099;-80
2022/03/10 07:48:17;;;;;;;20.83;12.43;;;0.80;99.90;;;;;;5001167;28;20061;-79
2022/03/10 07:50:43;;;;;;;17.55;11.43;;;1.00;99.90;;;;;;4998017;28;20042;-80
2022/03/10 07:53:09;;;;;;;18.73;12.10;;;2.50;99.90;;;;;;5001329;28;20084;-82
2022/03/10 07:55:35;;;;;;;20.67;12.95;;;1.20;99.90;;;;;;5018563;28;20136;-82
2022/03/10 07:58:01;;;;;;;20.38;13.30;;;0.40;99.90;;;;;;5016639;28;20125;-81
2022/03/10 08:00:27;;;;;;;20.70;12.65;;;1.70;99.90;;;;;;5009617;28;20639;-80
2022/03/10 08:02:53;;;;;;;18.38;12.25;;;1.60;99.90;;;;;;5009883;28;22730;-80
2022/03/10 08:05:18;;;;;;;19.50;12.85;;;3.60;99.90;;;;;;4984911;28;20053;-81
2022/03/10 08:07:44;;;;;;;20.65;13.85;;;2.90;99.90;;;;;;5002609;28;20049;-80
2022/03/10 08:10:11;;;;;;;18.52;13.18;;;2.50;99.90;;;;;;4984792;28;20034;-82
2022/03/10 08:12:36;;;;;;;21.20;13.07;;;3.60;99.90;;;;;;5015392;28;20129;-81
2022/03/10 08:15:03;;;;;;;18.70;11.73;;;2.50;99.90;;;;;;5015500;28;20049;-83
2022/03/10 08:17:29;;;;;;;19.83;12.73;;;2.60;99.90;;;;;;5016186;28;20084;-81
2022/03/10 08:19:55;;;;;;;24.70;13.30;;;2.80;99.90;;;;;;5001759;28;20070;-81
2022/03/10 08:22:22;;;;;;;23.65;13.73;;;3.20;99.90;;;;;;5014831;28;20415;-79
2022/03/10 08:24:48;;;;;;;22.27;13.80;;;4.50;99.90;;;;;;5016500;28;20042;-81
2022/03/10 08:27:15;;;;;;;20.48;13.27;;;3.70;99.90;;;;;;5001244;28;20053;-81
2022/03/10 08:29:42;;;;;;;22.65;14.38;;;5.80;99.90;;;;;;5015903;28;20053;-81
2022/03/10 08:32:08;;;;;;;21.02;14.52;;;4.30;99.90;;;;;;5001426;28;20045;-81
2022/03/10 08:34:35;;;;;;;21.88;13.30;;;4.60;99.90;;;;;;4984958;28;20054;-82
2022/03/10 08:37:01;;;;;;;21.33;13.23;;;6.20;99.90;;;;;;5001188;28;20061;-81
2022/03/10 08:39:27;;;;;;;18.73;12.65;;;5.10;99.90;;;;;;5006368;28;20081;-82
2022/03/10 08:41:55;;;;;;;20.27;13.13;;;5.40;99.90;;;;;;5015407;28;20053;-81
2022/03/10 08:44:21;;;;;;;20.58;13.23;;;5.70;99.90;;;;;;5007844;28;20050;-87
2022/03/10 08:46:57;;;;;;;23.30;14.02;;;5.90;99.90;;;;;;5001832;28;20442;-83
2022/03/10 08:49:25;;;;;;;;;;;6.20;99.90;;;;;;5007260;28;20208;-85
2022/03/10 08:51:51;;;;;;;18.23;12.90;;;6.40;99.90;;;;;;4999405;28;19968;-82
2022/03/10 08:54:17;;;;;;;19.08;11.82;;;6.60;99.90;;;;;;5000467;28;20095;-83
2022/03/10 08:56:43;;;;;;;19.95;12.48;;;6.50;99.90;;;;;;5001872;28;20053;-82
2022/03/10 08:59:08;;;;;;;18.80;12.75;;;7.10;99.90;;;;;;5008621;28;20053;-83
2022/03/10 09:01:38;;;;;;;21.27;12.35;;;7.40;99.90;;;;;;5002608;28;20092;-82
2022/03/10 09:04:04;;;;;;;18.13;13.10;;;7.70;99.90;;;;;;5017555;28;20116;-82
2022/03/10 09:06:33;;;;;;;18.60;12.50;;;6.50;99.90;;;;;;5001391;28;20116;-82
2022/03/10 09:09:00;;;;;;;17.75;12.20;;;8.40;99.90;;;;;;5001401;28;20218;-82
2022/03/10 09:11:26;;;;;;;18.38;12.90;;;8.50;99.90;;;;;;5006957;28;20049;-82
2022/03/10 09:13:51;;;;;;;19.52;13.13;;;8.70;99.90;;;;;;5016617;28;20056;-82
2022/03/10 09:16:19;;;;;;;17.92;12.98;;;9.00;99.90;;;;;;5000910;28;20049;-83
2022/03/10 09:18:46;;;;;;;19.02;13.43;;;9.00;99.90;;;;;;5017391;28;20128;-83
2022/03/10 09:21:13;;;;;;;20.48;12.52;;;9.20;99.90;;;;;;5007710;28;20148;-83
2022/03/10 09:23:39;;;;;;;17.95;12.30;;;9.50;99.90;;;;;;5017657;28;20050;-82
2022/03/10 09:26:05;;;;;;;20.75;13.75;;;9.50;99.90;;;;;;5010453;28;20062;-83
2022/03/10 09:28:31;;;;;;;18.58;12.88;;;9.60;99.90;;;;;;5002796;28;20095;-83
2022/03/10 09:30:57;;;;;;;19.65;13.27;;;9.80;99.90;;;;;;5017161;28;20085;-83
2022/03/10 09:33:23;;;;;;;19.73;13.18;;;9.90;99.90;;;;;;5000798;28;20046;-83
2022/03/10 09:35:50;;;;;;;18.92;12.80;;;10.10;99.90;;;;;;4983767;28;20093;-83
2022/03/10 09:38:16;;;;;;;18.20;12.57;;;10.20;99.90;;;;;;5001682;28;20053;-83
2022/03/10 09:40:43;;;;;;;20.35;13.05;;;10.40;99.90;;;;;;5008018;28;20054;-82
2022/03/10 09:43:10;;;;;;;18.88;13.20;;;10.70;99.90;;;;;;5001122;28;20065;-82
2022/03/10 09:45:37;;;;;;;18.33;13.35;;;10.80;99.90;;;;;;5012967;28;20046;-82
2022/03/10 09:48:03;;;;;;;19.65;13.77;;;11.10;99.90;;;;;;5004857;28;20077;-82
2022/03/10 09:50:29;;;;;;;17.73;13.15;;;11.20;99.90;;;;;;5009499;28;20438;-83
2022/03/10 09:52:55;;;;;;;18.33;12.98;;;11.20;99.90;;;;;;5012626;28;20171;-83
2022/03/10 09:55:26;;;;;;;20.73;13.82;;;11.40;99.90;;;;;;5035692;28;20406;-88
2022/03/10 09:57:54;;;;;;;21.77;13.57;;;10.80;99.90;;;;;;5004499;28;20045;-82
2022/03/10 10:00:19;;;;;;;18.23;13.00;;;11.70;99.90;;;;;;5020490;28;20050;-84
2022/03/10 10:02:46;;;;;;;19.67;13.75;;;12.10;99.90;;;;;;4987510;28;20048;-82
2022/03/10 10:05:20;;;;;;;20.05;14.20;;;12.20;99.90;;;;;;5011657;28;20052;-81
2022/03/10 10:08:01;;;;;;;18.75;13.88;;;12.40;99.60;;;;;;5005831;28;20123;-81
2022/03/10 10:10:28;;;;;;;18.58;13.65;;;12.70;99.30;;;;;;5019662;28;20123;-80
2022/03/10 10:12:54;;;;;;;21.20;15.30;;;13.00;99.00;;;;;;5012402;28;20057;-82
2022/03/10 10:15:20;;;;;;;19.63;14.27;;;13.10;98.90;;;;;;5003612;28;20060;-82
2022/03/10 10:17:55;;;;;;;22.52;14.50;;;13.20;98.60;;;;;;5011424;28;20054;-83
2022/03/10 10:20:21;;;;;;;20.23;14.98;;;12.70;97.10;;;;;;5018798;28;20049;-83
2022/03/10 10:22:48;;;;;;;20.27;14.35;;;13.30;97.80;;;;;;5011603;28;20563;-82
2022/03/10 10:25:20;;;;;;;20.58;15.57;;;13.40;97.70;;;;;;5012348;28;20056;-82
2022/03/10 10:27:49;;;;;;;21.27;16.00;;;13.40;96.70;;;;;;5011246;28;20125;-81
2022/03/10 10:30:15;;;;;;;18.90;14.30;;;13.40;97.20;;;;;;5003563;28;20484;-82
2022/03/10 10:32:53;;;;;;;22.52;15.48;;;13.40;97.50;;;;;;5011574;28;20042;-83
2022/03/10 10:35:23;;;;;;;21.35;14.65;;;13.60;97.40;;;;;;5005070;28;20195;-89
2022/03/10 10:37:54;;;;;;;21.65;15.15;;;13.20;97.00;;;;;;5019966;28;20068;-84
2022/03/10 10:40:24;;;;;;;19.15;13.63;;;13.70;97.10;;;;;;4993783;28;20132;-83
2022/03/10 10:42:51;;;;;;;21.42;15.05;;;13.70;95.90;;;;;;5020995;28;20053;-82
2022/03/10 10:45:35;;;;;;;20.25;14.45;;;13.70;96.00;;;;;;5028126;28;20048;-86
2022/03/10 10:48:09;;;;;;;20.27;14.43;;;13.60;94.60;;;;;;5009427;28;20559;-80
2022/03/10 10:50:38;;;;;;;17.15;13.52;;;13.60;95.70;;;;;;5017445;28;20128;-81
2022/03/10 10:53:05;;;;;;;21.33;13.85;;;13.50;96.00;;;;;;5026828;28;20120;-81
2022/03/10 10:55:36;;;;;;;17.60;13.48;;;13.10;96.10;;;;;;5003324;28;20088;-81
2022/03/10 10:58:15;;;;;;;19.58;14.13;;;13.20;96.70;;;;;;5010153;28;20447;-81
2022/03/10 11:00:46;;;;;;;19.27;13.98;;;12.40;96.60;;;;;;5002021;28;20063;-81
2022/03/10 11:03:23;;;;;;;20.15;14.10;;;13.00;97.20;;;;;;5004682;28;20050;-80
2022/03/10 11:05:49;;;;;;;19.35;14.55;;;13.10;97.30;;;;;;5019619;28;20053;-81
2022/03/10 11:08:22;;;;;;;18.55;14.43;;;13.20;97.40;;;;;;5003804;28;20061;-81
2022/03/10 11:10:49;;;;;;;21.38;14.63;;;13.20;97.10;;;;;;4993695;28;20080;-81
2022/03/10 11:13:15;;;;;;;19.45;14.13;;;13.40;97.00;;;;;;5018826;28;20056;-82
2022/03/10 11:15:42;;;;;;;21.67;14.13;;;13.60;96.90;;;;;;4990430;28;20122;-80
2022/03/10 11:18:10;;;;;;;18.98;14.45;;;13.80;96.70;;;;;;5025682;28;20050;-81
2022/03/10 11:20:45;;;;;;;18.55;14.25;;;14.00;96.00;;;;;;5008888;28;20398;-81
2022/03/10 11:23:43;;;;;;;17.33;13.80;;;14.10;95.50;;;;;;5009436;28;20499;-80
2022/03/10 11:26:30;;;;;;;21.08;13.95;;;14.20;93.60;;;;;;5019228;28;20058;-80
2022/03/10 11:28:58;;;;;;;18.80;13.68;;;14.30;93.00;;;;;;5017132;28;20103;-79
2022/03/10 11:31:25;;;;;;;18.45;13.60;;;14.50;93.20;;;;;;5016968;28;20054;-81
2022/03/10 11:33:51;;;;;;;18.90;14.00;;;14.70;92.90;;;;;;5017754;28;20053;-83
2022/03/10 11:36:29;;;;;;;17.58;13.55;;;14.70;91.90;;;;;;4987087;28;20137;-82
2022/03/10 11:38:56;;;;;;;17.52;13.20;;;15.00;90.90;;;;;;5004152;28;20551;-82
2022/03/10 11:41:43;;;;;;;19.98;13.75;;;15.30;90.50;;;;;;5018513;28;20048;-83
2022/03/10 11:44:10;;;;;;;20.52;14.10;;;16.00;88.40;;;;;;5018841;28;20072;-81
2022/03/10 11:46:59;;;;;;;21.73;13.95;;;16.20;88.00;;;;;;5019538;28;20418;-83
2022/03/10 11:49:41;;;;;;;19.02;14.70;;;16.80;80.10;;;;;;4992368;28;20054;-86
2022/03/10 11:52:24;;;;;;;20.88;14.20;;;17.80;77.70;;;;;;5001640;28;20045;-83
2022/03/10 11:55:07;;;;;;;20.65;15.23;;;18.70;74.20;;;;;;5019161;28;20057;-82
2022/03/10 11:57:52;;;;;;;22.83;15.18;;;19.80;68.80;;;;;;5008579;28;20052;-82
2022/03/10 12:00:22;;;;;;;19.35;14.25;;;20.20;61.80;;;;;;5000060;28;20103;-83
2022/03/10 12:02:59;;;;;;;19.33;14.27;;;20.70;61.90;;;;;;5002467;28;20054;-83
2022/03/10 12:05:25;;;;;;;20.95;14.20;;;21.00;58.90;;;;;;5003266;28;20562;-83
2022/03/10 12:07:54;;;;;;;19.50;14.52;;;21.40;58.10;;;;;;4985827;28;20152;-83
2022/03/10 12:10:22;;;;;;;18.50;13.85;;;21.80;56.00;;;;;;5018474;28;20053;-83
2022/03/10 12:12:48;;;;;;;18.17;13.90;;;21.80;55.40;;;;;;5022312;28;20494;-83
2022/03/10 12:15:23;;;;;;;19.98;13.48;;;21.80;54.60;;;;;;5002479;28;20053;-82
2022/03/10 12:17:54;;;;;;;18.67;13.33;;;21.90;54.70;;;;;;5034137;28;20379;-82
2022/03/10 12:20:23;;;;;;;17.92;13.45;;;22.00;54.30;;;;;;5032959;28;20037;-82
2022/03/10 12:23:13;;;;;;;18.83;13.77;;;22.20;54.10;;;;;;5002904;28;20465;-82
2022/03/10 12:25:47;;;;;;;19.38;13.10;;;22.50;52.80;;;;;;5008397;28;20092;-83
2022/03/10 12:28:29;;;;;;;17.70;12.65;;;22.70;53.20;;;;;;5003167;28;20057;-85
2022/03/10 12:31:08;;;;;;;19.88;12.68;;;22.70;51.00;;;;;;5020002;28;20045;-83
2022/03/10 12:33:40;;;;;;;17.60;13.40;;;22.60;51.50;;;;;;5013156;28;20057;-81
2022/03/10 12:36:10;;;;;;;17.30;13.27;;;22.60;52.00;;;;;;5002171;28;20046;-82
2022/03/10 12:38:43;;;;;;;18.35;13.35;;;22.80;52.30;;;;;;4986624;28;20046;-81
2022/03/10 12:41:10;;;;;;;17.25;12.77;;;22.60;50.30;;;;;;5000434;28;20133;-81